Airport View

Enter AWOS ICAO identifier for current METAR.

ex. KFNL

KESC 191856Z AUTO 13009KT 10SM FEW036 BKN055 18/13 A2982 RMK AO2 SLP102 T01830128

19 Jun 2019 19:45

Frequency: 121.425

Phone: 906-786-9001

Other Area AWOS: K2P2 - K3D2 - KSAW - KISQ

TAF KSAW 191720Z 1918/2018 04007KT P6SM SCT120 FM200200 VRB03KT P6SM SKC FM201300 03006KT P6SM SCT250